Main page
METAR-TAF:

METAR-TAF

Airports :

Aérodrome de Dax - Seyresse

Dax, France

latitude: 43-41N, longitude: 001-04W, elevation: 32 m

Current weather observation

The report was made 16 minutes ago, at 01:30 UTC
Wind 3 kt from the West/Southwest, varying between South/Southwest and West
Temperature 21°C
Humidity 94%
Pressure 1020 hPa
Overcast at a height of 500 ft

METAR: LFBY 220130Z AUTO 24003KT 200V270 //// // OVC005 21/20 Q1020

Time: 03:46 (01:46 UTC)

Forecast

The report was made 17 hours and 46 minutes ago, at 08:00 UTC
Forecast valid from 21 at 09 UTC to 21 at 18 UTC
Wind 5 kt from the West
Visibility: 6000 m
Broken clouds at a height of 1000 ft
Becoming
from 21 at 11 UTC to 21 at 13 UTC
Visibility 10 km or more
Broken clouds at a height of 2500 ft

TAF: LFBY 210800Z 2109/2118 26005KT 6000 BKN010 BECMG 2111/2113 9999 BKN025

Weather observations and forecasts of more than 4000 airports (METAR and TAF reports).

The available stations are represented by yellow and red dots on the map.

Hover mouse over dot to see the name of the station.

Then click to see weather observations and forecasts.

To change the map : click on the green buttons with a black cross to zoom in, on the green button with a dash to zoom out, or on the green arrows for adjacent maps.


METAR-TAF: